sensor_id;sensor_type;location;lat;lon;timestamp;pressure;altitude;pressure_sealevel;temperature;humidity
7836;BME280;3963;42.658;23.298;2023-08-06T00:00:38;-3271.13;;;-144.44;100.00
7836;BME280;3963;42.658;23.298;2023-08-06T00:03:06;-3520.41;;;-144.44;100.00
7836;BME280;3963;42.658;23.298;2023-08-06T00:05:32;-4766.53;;;-144.44;100.00
7836;BME280;3963;42.658;23.298;2023-08-06T00:07:59;-5514.00;;;-144.44;100.00
7836;BME280;3963;42.658;23.298;2023-08-06T00:10:27;-6759.34;;;-144.44;100.00
7836;BME280;3963;42.658;23.298;2023-08-06T00:12:54;-8004.25;;;-144.44;100.00
7836;BME280;3963;42.658;23.298;2023-08-06T00:15:22;-8502.09;;;-144.44;100.00
7836;BME280;3963;42.658;23.298;2023-08-06T00:17:49;-9497.50;;;-144.44;100.00
7836;BME280;3963;42.658;23.298;2023-08-06T00:20:16;-10492.63;;;-144.44;100.00
7836;BME280;3963;42.658;23.298;2023-08-06T00:22:42;-11487.44;;;-144.44;100.00
7836;BME280;3963;42.658;23.298;2023-08-06T00:25:09;-12481.94;;;-144.44;100.00
7836;BME280;3963;42.658;23.298;2023-08-06T00:27:37;-12979.09;;;-144.44;100.00
7836;BME280;3963;42.658;23.298;2023-08-06T00:30:06;-13227.63;;;-144.44;100.00
7836;BME280;3963;42.658;23.298;2023-08-06T00:32:32;-13476.16;;;-144.44;100.00
7836;BME280;3963;42.658;23.298;2023-08-06T00:34:59;-13724.66;;;-144.44;100.00
7836;BME280;3963;42.658;23.298;2023-08-06T00:37:26;-13724.66;;;-144.44;100.00
7836;BME280;3963;42.658;23.298;2023-08-06T00:39:53;-13724.66;;;-144.44;100.00
7836;BME280;3963;42.658;23.298;2023-08-06T00:42:19;-13476.16;;;-144.44;100.00
7836;BME280;3963;42.658;23.298;2023-08-06T00:44:49;-13227.63;;;-144.44;100.00
7836;BME280;3963;42.658;23.298;2023-08-06T00:47:15;-12979.09;;;-144.44;100.00
7836;BME280;3963;42.658;23.298;2023-08-06T00:49:43;-12979.09;;;-144.44;100.00
7836;BME280;3963;42.658;23.298;2023-08-06T00:52:10;-13227.63;;;-144.44;100.00
7836;BME280;3963;42.658;23.298;2023-08-06T00:54:38;-13227.63;;;-144.44;100.00
7836;BME280;3963;42.658;23.298;2023-08-06T00:57:07;-13227.63;;;-144.44;100.00
7836;BME280;3963;42.658;23.298;2023-08-06T00:59:34;-13227.63;;;-144.44;100.00
7836;BME280;3963;42.658;23.298;2023-08-06T01:02:02;-12979.09;;;-144.44;100.00
7836;BME280;3963;42.658;23.298;2023-08-06T01:04:29;-11984.72;;;-144.44;100.00
7836;BME280;3963;42.658;23.298;2023-08-06T01:07:04;-11984.72;;;-144.44;100.00
7836;BME280;3963;42.658;23.298;2023-08-06T01:09:44;-11487.44;;;-144.44;100.00
7836;BME280;3963;42.658;23.298;2023-08-06T01:12:20;-10741.34;;;-144.44;100.00
7836;BME280;3963;42.658;23.298;2023-08-06T01:14:54;-10990.06;;;-144.44;100.00
7836;BME280;3963;42.658;23.298;2023-08-06T01:17:25;-11238.75;;;-144.44;100.00
7836;BME280;3963;42.658;23.298;2023-08-06T01:19:53;-11487.44;;;-144.44;100.00
7836;BME280;3963;42.658;23.298;2023-08-06T01:22:21;-11238.75;;;-144.44;100.00
7836;BME280;3963;42.658;23.298;2023-08-06T01:24:50;-10492.63;;;-144.44;100.00
7836;BME280;3963;42.658;23.298;2023-08-06T01:27:23;-10990.06;;;-144.44;100.00
7836;BME280;3963;42.658;23.298;2023-08-06T01:29:57;-11238.75;;;-144.44;100.00
7836;BME280;3963;42.658;23.298;2023-08-06T01:32:31;-10990.06;;;-144.44;100.00
7836;BME280;3963;42.658;23.298;2023-08-06T01:35:00;-10741.34;;;-144.44;100.00
7836;BME280;3963;42.658;23.298;2023-08-06T01:37:29;-10492.63;;;-144.44;100.00
7836;BME280;3963;42.658;23.298;2023-08-06T01:39:56;-10243.88;;;-144.44;100.00
7836;BME280;3963;42.658;23.298;2023-08-06T01:42:23;-10492.63;;;-144.44;100.00
7836;BME280;3963;42.658;23.298;2023-08-06T01:44:50;-10243.88;;;-144.44;100.00
7836;BME280;3963;42.658;23.298;2023-08-06T01:47:17;-6510.31;;;-144.44;100.00
7836;BME280;3963;42.658;23.298;2023-08-06T01:49:44;-6510.31;;;-144.44;100.00
7836;BME280;3963;42.658;23.298;2023-08-06T01:52:10;-7008.38;;;-144.44;100.00
7836;BME280;3963;42.658;23.298;2023-08-06T01:54:38;-7755.31;;;-144.44;100.00
7836;BME280;3963;42.658;23.298;2023-08-06T01:57:06;-6759.34;;;-144.44;100.00
7836;BME280;3963;42.658;23.298;2023-08-06T01:59:32;-3021.81;;;-144.44;100.00
7836;BME280;3963;42.658;23.298;2023-08-06T02:01:59;220.84;;;-144.44;100.00
7836;BME280;3963;42.658;23.298;2023-08-06T02:04:26;-278.25;;;-144.44;100.00
7836;BME280;3963;42.658;23.298;2023-08-06T02:06:52;-2523.16;;;-144.44;100.00
7836;BME280;3963;42.658;23.298;2023-08-06T02:09:19;-4517.34;;;-144.44;100.00
7836;BME280;3963;42.658;23.298;2023-08-06T02:11:49;-5514.00;;;-144.44;100.00
7836;BME280;3963;42.658;23.298;2023-08-06T02:14:16;-6510.31;;;-144.44;100.00
7836;BME280;3963;42.658;23.298;2023-08-06T02:16:43;-7008.38;;;-144.44;100.00
7836;BME280;3963;42.658;23.298;2023-08-06T02:19:10;-6759.34;;;-144.44;100.00
7836;BME280;3963;42.658;23.298;2023-08-06T02:21:36;-5763.09;;;-144.44;100.00
7836;BME280;3963;42.658;23.298;2023-08-06T02:24:04;-3769.66;;;-144.44;100.00
7836;BME280;3963;42.658;23.298;2023-08-06T02:26:30;-3769.66;;;-144.44;100.00
7836;BME280;3963;42.658;23.298;2023-08-06T02:29:01;-6261.28;;;-144.44;100.00
7836;BME280;3963;42.658;23.298;2023-08-06T02:31:28;-7257.38;;;-144.44;100.00
7836;BME280;3963;42.658;23.298;2023-08-06T02:33:55;-8253.19;;;-144.44;100.00
7836;BME280;3963;42.658;23.298;2023-08-06T02:36:23;-8999.84;;;-144.44;100.00
7836;BME280;3963;42.658;23.298;2023-08-06T02:38:52;-9497.50;;;-144.44;100.00
7836;BME280;3963;42.658;23.298;2023-08-06T02:41:19;-9995.09;;;-144.44;100.00
7836;BME280;3963;42.658;23.298;2023-08-06T02:43:46;-9995.09;;;-144.44;100.00
7836;BME280;3963;42.658;23.298;2023-08-06T02:46:17;-10243.88;;;-144.44;100.00
7836;BME280;3963;42.658;23.298;2023-08-06T02:48:43;-9497.50;;;-144.44;100.00
7836;BME280;3963;42.658;23.298;2023-08-06T02:51:11;-8999.84;;;-144.44;100.00
7836;BME280;3963;42.658;23.298;2023-08-06T02:53:38;-8004.25;;;-144.44;100.00
7836;BME280;3963;42.658;23.298;2023-08-06T02:56:05;-7755.31;;;-144.44;100.00
7836;BME280;3963;42.658;23.298;2023-08-06T02:58:31;-8004.25;;;-144.44;100.00
7836;BME280;3963;42.658;23.298;2023-08-06T03:01:03;-7506.34;;;-144.44;100.00
7836;BME280;3963;42.658;23.298;2023-08-06T03:03:32;-8502.09;;;-144.44;100.00
7836;BME280;3963;42.658;23.298;2023-08-06T03:06:01;-9248.69;;;-144.44;100.00
7836;BME280;3963;42.658;23.298;2023-08-06T03:08:28;-8750.97;;;-144.44;100.00
7836;BME280;3963;42.658;23.298;2023-08-06T03:10:55;-8253.19;;;-144.44;100.00
7836;BME280;3963;42.658;23.298;2023-08-06T03:13:22;-8004.25;;;-144.44;100.00
7836;BME280;3963;42.658;23.298;2023-08-06T03:15:52;-8004.25;;;-144.44;100.00
7836;BME280;3963;42.658;23.298;2023-08-06T03:18:19;-8253.19;;;-144.44;100.00
7836;BME280;3963;42.658;23.298;2023-08-06T03:20:48;-8004.25;;;-144.44;100.00
7836;BME280;3963;42.658;23.298;2023-08-06T03:23:15;-7755.31;;;-144.44;100.00
7836;BME280;3963;42.658;23.298;2023-08-06T03:25:44;-8253.19;;;-144.44;100.00
7836;BME280;3963;42.658;23.298;2023-08-06T03:28:11;-8750.97;;;-144.44;100.00
7836;BME280;3963;42.658;23.298;2023-08-06T03:30:38;-9248.69;;;-144.44;100.00
7836;BME280;3963;42.658;23.298;2023-08-06T03:33:05;-8253.19;;;-144.44;100.00
7836;BME280;3963;42.658;23.298;2023-08-06T03:35:32;-6510.31;;;-144.44;100.00
7836;BME280;3963;42.658;23.298;2023-08-06T03:38:01;-6261.28;;;-144.44;100.00
7836;BME280;3963;42.658;23.298;2023-08-06T03:40:27;-6510.31;;;-144.44;100.00
7836;BME280;3963;42.658;23.298;2023-08-06T03:42:54;-6510.31;;;-144.44;100.00
7836;BME280;3963;42.658;23.298;2023-08-06T03:45:21;-7257.38;;;-144.44;100.00
7836;BME280;3963;42.658;23.298;2023-08-06T03:47:48;-7755.31;;;-144.44;100.00
7836;BME280;3963;42.658;23.298;2023-08-06T03:50:15;-7755.31;;;-144.44;100.00
7836;BME280;3963;42.658;23.298;2023-08-06T03:52:41;-8502.09;;;-144.44;100.00
7836;BME280;3963;42.658;23.298;2023-08-06T03:55:09;-8750.97;;;-144.44;100.00
7836;BME280;3963;42.658;23.298;2023-08-06T03:57:36;-8999.84;;;-144.44;100.00
7836;BME280;3963;42.658;23.298;2023-08-06T04:00:03;-8999.84;;;-144.44;100.00
7836;BME280;3963;42.658;23.298;2023-08-06T04:02:30;-8999.84;;;-144.44;100.00
7836;BME280;3963;42.658;23.298;2023-08-06T04:04:57;-8750.97;;;-144.44;100.00
7836;BME280;3963;42.658;23.298;2023-08-06T04:07:25;-8253.19;;;-144.44;100.00
7836;BME280;3963;42.658;23.298;2023-08-06T04:09:53;-6759.34;;;-144.44;100.00
7836;BME280;3963;42.658;23.298;2023-08-06T04:12:22;-6012.19;;;-144.44;100.00
7836;BME280;3963;42.658;23.298;2023-08-06T04:14:50;-5763.09;;;-144.44;100.00
7836;BME280;3963;42.658;23.298;2023-08-06T04:17:17;-6261.28;;;-144.44;100.00
7836;BME280;3963;42.658;23.298;2023-08-06T04:19:46;-7257.38;;;-144.44;100.00
7836;BME280;3963;42.658;23.298;2023-08-06T04:22:13;-7506.34;;;-144.44;100.00
7836;BME280;3963;42.658;23.298;2023-08-06T04:24:41;-7008.38;;;-144.44;100.00
7836;BME280;3963;42.658;23.298;2023-08-06T04:27:08;-5763.09;;;-144.44;100.00
7836;BME280;3963;42.658;23.298;2023-08-06T04:29:37;-5264.84;;;-144.44;100.00
7836;BME280;3963;42.658;23.298;2023-08-06T04:32:06;-4766.53;;;-144.44;100.00
7836;BME280;3963;42.658;23.298;2023-08-06T04:34:33;-5015.72;;;-144.44;100.00
7836;BME280;3963;42.658;23.298;2023-08-06T04:37:00;-4517.34;;;-144.44;100.00
7836;BME280;3963;42.658;23.298;2023-08-06T04:39:27;-4268.16;;;-144.44;100.00
7836;BME280;3963;42.658;23.298;2023-08-06T04:41:55;-4018.91;;;-144.44;100.00
7836;BME280;3963;42.658;23.298;2023-08-06T04:44:22;-2523.16;;;-144.44;100.00
7836;BME280;3963;42.658;23.298;2023-08-06T04:46:50;-3271.13;;;-144.44;100.00
7836;BME280;3963;42.658;23.298;2023-08-06T04:49:17;-4018.91;;;-144.44;100.00
7836;BME280;3963;42.658;23.298;2023-08-06T04:51:44;-3021.81;;;-144.44;100.00
7836;BME280;3963;42.658;23.298;2023-08-06T04:54:11;-2523.16;;;-144.44;100.00
7836;BME280;3963;42.658;23.298;2023-08-06T04:56:38;-1525.63;;;-144.44;100.00
7836;BME280;3963;42.658;23.298;2023-08-06T04:59:05;-527.75;;;-144.44;100.00
7836;BME280;3963;42.658;23.298;2023-08-06T05:01:32;-1276.19;;;-144.44;100.00
7836;BME280;3963;42.658;23.298;2023-08-06T05:04:00;-278.25;;;-144.44;100.00
7836;BME280;3963;42.658;23.298;2023-08-06T05:06:27;2717.38;;;-144.44;100.00
7836;BME280;3963;42.658;23.298;2023-08-06T05:08:55;3966.34;;;-144.44;100.00
7836;BME280;3963;42.658;23.298;2023-08-06T05:11:22;2217.91;;;-144.44;100.00
7836;BME280;3963;42.658;23.298;2023-08-06T05:13:49;2217.91;;;-144.44;100.00
7836;BME280;3963;42.658;23.298;2023-08-06T05:16:16;5715.72;;;-144.44;100.00
7836;BME280;3963;42.658;23.298;2023-08-06T05:18:43;8716.78;;;-144.44;100.00
7836;BME280;3963;42.658;23.298;2023-08-06T05:21:12;10218.38;;;-144.44;100.00
7836;BME280;3963;42.658;23.298;2023-08-06T05:23:38;12472.00;;;-144.44;100.00
7836;BME280;3963;42.658;23.298;2023-08-06T05:26:05;10218.38;;;-144.44;100.00
7836;BME280;3963;42.658;23.298;2023-08-06T05:28:33;11219.78;;;-144.44;100.00
7836;BME280;3963;42.658;23.298;2023-08-06T05:31:03;11720.63;;;-144.44;100.00
7836;BME280;3963;42.658;23.298;2023-08-06T05:33:30;15980.69;;;-144.44;100.00
7836;BME280;3963;42.658;23.298;2023-08-06T05:35:57;19493.13;;;-144.44;100.00
7836;BME280;3963;42.658;23.298;2023-08-06T05:38:26;20999.59;;;-144.44;100.00
7836;BME280;3963;42.658;23.298;2023-08-06T05:40:53;22255.50;;;-144.44;100.00
7836;BME280;3963;42.658;23.298;2023-08-06T05:43:20;28038.81;;;-144.44;100.00
7836;BME280;3963;42.658;23.298;2023-08-06T05:45:49;34754.03;;;-144.44;100.00
7836;BME280;3963;42.658;23.298;2023-08-06T05:48:16;38100.94;;;-144.44;100.00
7836;BME280;3963;42.658;23.298;2023-08-06T05:50:43;38562.44;;;-144.44;100.00
7836;BME280;3963;42.658;23.298;2023-08-06T05:53:10;39824.97;;;-144.44;100.00
7836;BME280;3963;42.658;23.298;2023-08-06T05:55:38;42641.75;;;-144.44;100.00
7836;BME280;3963;42.658;23.298;2023-08-06T05:58:05;42797.75;;;-144.44;100.00
7836;BME280;3963;42.658;23.298;2023-08-06T06:00:32;43018.94;;;-144.44;100.00
7836;BME280;3963;42.658;23.298;2023-08-06T06:03:00;43607.53;;;-144.44;100.00
7836;BME280;3963;42.658;23.298;2023-08-06T06:05:27;43489.00;;;-144.44;100.00
7836;BME280;3963;42.658;23.298;2023-08-06T06:07:54;43801.09;;;-144.44;100.00
7836;BME280;3963;42.658;23.298;2023-08-06T06:10:20;43724.06;;;-144.44;100.00
7836;BME280;3963;42.658;23.298;2023-08-06T06:12:52;44014.47;;;-144.44;100.00
7836;BME280;3963;42.658;23.298;2023-08-06T06:15:19;43967.03;;;-144.44;100.00
7836;BME280;3963;42.658;23.298;2023-08-06T06:17:45;43986.81;;;-144.44;100.00
7836;BME280;3963;42.658;23.298;2023-08-06T06:20:12;44172.50;;;-144.44;100.00
7836;BME280;3963;42.658;23.298;2023-08-06T06:22:40;44296.97;;;-144.44;100.00
7836;BME280;3963;42.658;23.298;2023-08-06T06:25:08;44397.72;;;-144.44;100.00
7836;BME280;3963;42.658;23.298;2023-08-06T06:27:36;44421.44;;;-144.44;100.00
7836;BME280;3963;42.658;23.298;2023-08-06T06:30:05;44462.94;;;-144.44;100.00
7836;BME280;3963;42.658;23.298;2023-08-06T06:32:32;44441.19;;;-144.44;100.00
7836;BME280;3963;42.658;23.298;2023-08-06T06:34:59;44431.31;;;-144.44;100.00
7836;BME280;3963;42.658;23.298;2023-08-06T06:37:26;44393.78;;;-144.44;100.00
7836;BME280;3963;42.658;23.298;2023-08-06T06:39:53;44464.91;;;-144.44;100.00
7836;BME280;3963;42.658;23.298;2023-08-06T06:42:20;44451.06;;;-144.44;100.00
7836;BME280;3963;42.658;23.298;2023-08-06T06:44:48;44472.81;;;-144.44;100.00
7836;BME280;3963;42.658;23.298;2023-08-06T06:47:16;44488.63;;;-144.44;100.00
7836;BME280;3963;42.658;23.298;2023-08-06T06:49:44;44411.56;;;-144.44;100.00
7836;BME280;3963;42.658;23.298;2023-08-06T06:52:11;44389.84;;;-144.44;100.00
7836;BME280;3963;42.658;23.298;2023-08-06T06:54:38;44437.25;;;-144.44;100.00
7836;BME280;3963;42.658;23.298;2023-08-06T06:57:05;44486.66;;;-144.44;100.00
7836;BME280;3963;42.658;23.298;2023-08-06T06:59:32;44526.16;;;-144.44;100.00
7836;BME280;3963;42.658;23.298;2023-08-06T07:01:59;44587.41;;;-144.44;100.00
7836;BME280;3963;42.658;23.298;2023-08-06T07:04:27;44599.28;;;-144.44;100.00
7836;BME280;3963;42.658;23.298;2023-08-06T07:06:53;44621.00;;;-144.44;100.00
7836;BME280;3963;42.658;23.298;2023-08-06T07:09:20;44615.06;;;-144.44;100.00
7836;BME280;3963;42.658;23.298;2023-08-06T07:11:47;44630.88;;;-144.44;100.00
7836;BME280;3963;42.658;23.298;2023-08-06T07:14:13;44630.88;;;-144.44;100.00
7836;BME280;3963;42.658;23.298;2023-08-06T07:16:41;44617.06;;;-144.44;100.00
7836;BME280;3963;42.658;23.298;2023-08-06T07:19:08;44632.84;;;-144.44;100.00
7836;BME280;3963;42.658;23.298;2023-08-06T07:21:36;44694.13;;;-144.44;90.86
7836;BME280;3963;42.658;23.298;2023-08-06T07:24:03;44755.38;;;-144.44;85.17
7836;BME280;3963;42.658;23.298;2023-08-06T07:26:30;44812.66;;;-144.44;78.77
7836;BME280;3963;42.658;23.298;2023-08-06T07:28:57;44891.72;;;-144.44;76.88
7836;BME280;3963;42.658;23.298;2023-08-06T07:31:24;44951.00;;;-144.44;75.72
7836;BME280;3963;42.658;23.298;2023-08-06T07:33:51;44986.56;;;-144.44;72.57
7836;BME280;3963;42.658;23.298;2023-08-06T07:36:18;45047.81;;;-144.44;67.30
7836;BME280;3963;42.658;23.298;2023-08-06T07:38:46;45079.44;;;-144.44;69.24
7836;BME280;3963;42.658;23.298;2023-08-06T07:41:14;45109.09;;;-144.44;71.21
7836;BME280;3963;42.658;23.298;2023-08-06T07:43:41;45160.47;;;-144.44;68.61
7836;BME280;3963;42.658;23.298;2023-08-06T07:46:08;45124.91;;;-144.44;69.08
7836;BME280;3963;42.658;23.298;2023-08-06T07:48:35;45144.66;;;-144.44;68.69
7836;BME280;3963;42.658;23.298;2023-08-06T07:51:02;45207.91;;;-144.44;63.60
7836;BME280;3963;42.658;23.298;2023-08-06T07:53:29;45247.41;;;-144.44;62.92
7836;BME280;3963;42.658;23.298;2023-08-06T07:55:57;45235.56;;;-144.44;66.08
7836;BME280;3963;42.658;23.298;2023-08-06T07:58:25;45247.41;;;-144.44;60.11
7836;BME280;3963;42.658;23.298;2023-08-06T08:00:52;45304.72;;;-144.44;60.97
7836;BME280;3963;42.658;23.298;2023-08-06T08:03:18;45350.19;;;-144.44;57.72
7836;BME280;3963;42.658;23.298;2023-08-06T08:05:46;45373.91;;;-144.44;54.83
7836;BME280;3963;42.658;23.298;2023-08-06T08:08:13;45421.34;;;-144.44;56.21
7836;BME280;3963;42.658;23.298;2023-08-06T08:10:40;45468.78;;;-144.44;52.88
7836;BME280;3963;42.658;23.298;2023-08-06T08:13:08;45460.88;;;-144.44;52.74
7836;BME280;3963;42.658;23.298;2023-08-06T08:15:35;45454.94;;;-144.44;51.89
7836;BME280;3963;42.658;23.298;2023-08-06T08:18:02;45437.16;;;-144.44;53.74
7836;BME280;3963;42.658;23.298;2023-08-06T08:20:29;45470.75;;;-144.44;52.11
7836;BME280;3963;42.658;23.298;2023-08-06T08:22:58;45535.97;;;-144.44;49.27
7836;BME280;3963;42.658;23.298;2023-08-06T08:25:26;45512.25;;;-144.44;50.33
7836;BME280;3963;42.658;23.298;2023-08-06T08:27:52;45557.72;;;-144.44;48.08
7836;BME280;3963;42.658;23.298;2023-08-06T08:30:21;45482.59;;;-144.44;51.33
7836;BME280;3963;42.658;23.298;2023-08-06T08:32:48;45468.78;;;-144.44;52.96
7836;BME280;3963;42.658;23.298;2023-08-06T08:35:15;45539.91;;;-144.44;49.10
7836;BME280;3963;42.658;23.298;2023-08-06T08:37:42;45522.13;;;-144.44;48.57
7836;BME280;3963;42.658;23.298;2023-08-06T08:40:09;45573.53;;;-144.44;48.61
7836;BME280;3963;42.658;23.298;2023-08-06T08:42:36;45563.63;;;-144.44;46.83
7836;BME280;3963;42.658;23.298;2023-08-06T08:45:05;45644.66;;;-144.44;44.38
7836;BME280;3963;42.658;23.298;2023-08-06T08:47:35;45698.03;;;-144.44;45.16
7836;BME280;3963;42.658;23.298;2023-08-06T08:50:04;45727.69;;;-144.44;44.21
7836;BME280;3963;42.658;23.298;2023-08-06T08:52:32;45832.44;;;-144.44;41.10
7836;BME280;3963;42.658;23.298;2023-08-06T08:55:01;45864.06;;;-144.44;39.73
7836;BME280;3963;42.658;23.298;2023-08-06T08:57:28;45864.06;;;-144.44;40.09
7836;BME280;3963;42.658;23.298;2023-08-06T08:59:55;45848.25;;;-144.44;39.60
7836;BME280;3963;42.658;23.298;2023-08-06T09:02:23;45844.31;;;-144.44;39.94
7836;BME280;3963;42.658;23.298;2023-08-06T09:04:53;45941.16;;;-144.44;38.88
7836;BME280;3963;42.658;23.298;2023-08-06T09:07:21;45943.13;;;-144.44;37.50
7836;BME280;3963;42.658;23.298;2023-08-06T09:09:50;45875.94;;;-144.44;39.03
7836;BME280;3963;42.658;23.298;2023-08-06T09:12:18;45818.59;;;-144.44;39.25
7836;BME280;3963;42.658;23.298;2023-08-06T09:14:45;45828.50;;;-144.44;40.04
7836;BME280;3963;42.658;23.298;2023-08-06T09:17:12;45887.78;;;-144.44;39.03
7836;BME280;3963;42.658;23.298;2023-08-06T09:19:42;45866.03;;;-144.44;38.72
7836;BME280;3963;42.658;23.298;2023-08-06T09:22:14;45958.94;;;-144.44;37.45
7836;BME280;3963;42.658;23.298;2023-08-06T09:24:41;45921.38;;;-144.44;38.30
7836;BME280;3963;42.658;23.298;2023-08-06T09:27:11;46036.03;;;-144.44;36.47
7836;BME280;3963;42.658;23.298;2023-08-06T09:29:40;45968.84;;;-144.44;36.00
7836;BME280;3963;42.658;23.298;2023-08-06T09:32:08;45868.03;;;-144.44;37.71
7836;BME280;3963;42.658;23.298;2023-08-06T09:34:35;45976.75;;;-144.44;37.33
7836;BME280;3963;42.658;23.298;2023-08-06T09:37:03;45856.16;;;-144.44;37.33
7836;BME280;3963;42.658;23.298;2023-08-06T09:39:32;45891.75;;;-144.44;37.14
7836;BME280;3963;42.658;23.298;2023-08-06T09:42:00;45866.03;;;-144.44;38.37
7836;BME280;3963;42.658;23.298;2023-08-06T09:44:28;45844.31;;;-144.44;38.36
7836;BME280;3963;42.658;23.298;2023-08-06T09:46:57;45749.44;;;-144.44;39.26
7836;BME280;3963;42.658;23.298;2023-08-06T09:49:26;45721.75;;;-144.44;39.83
7836;BME280;3963;42.658;23.298;2023-08-06T09:51:53;45705.94;;;-144.44;40.35
7836;BME280;3963;42.658;23.298;2023-08-06T09:54:22;45680.25;;;-144.44;41.39
7836;BME280;3963;42.658;23.298;2023-08-06T09:56:52;45654.56;;;-144.44;40.62
7836;BME280;3963;42.658;23.298;2023-08-06T09:59:19;45626.88;;;-144.44;41.77
7836;BME280;3963;42.658;23.298;2023-08-06T10:01:46;45660.47;;;-144.44;41.69
7836;BME280;3963;42.658;23.298;2023-08-06T10:04:15;45601.19;;;-144.44;42.21
7836;BME280;3963;42.658;23.298;2023-08-06T10:06:46;45571.53;;;-144.44;42.16
7836;BME280;3963;42.658;23.298;2023-08-06T10:09:14;45569.56;;;-144.44;42.16
7836;BME280;3963;42.658;23.298;2023-08-06T10:11:42;45565.63;;;-144.44;42.72
7836;BME280;3963;42.658;23.298;2023-08-06T10:14:12;45563.63;;;-144.44;43.64
7836;BME280;3963;42.658;23.298;2023-08-06T10:16:41;45541.91;;;-144.44;44.09
7836;BME280;3963;42.658;23.298;2023-08-06T10:19:09;45587.34;;;-144.44;44.05
7836;BME280;3963;42.658;23.298;2023-08-06T10:21:38;45694.09;;;-144.44;41.10
7836;BME280;3963;42.658;23.298;2023-08-06T10:24:07;45733.63;;;-144.44;39.95
7836;BME280;3963;42.658;23.298;2023-08-06T10:26:36;45719.78;;;-144.44;39.93
7836;BME280;3963;42.658;23.298;2023-08-06T10:29:35;45666.41;;;-144.44;39.54
7836;BME280;3963;42.658;23.298;2023-08-06T10:32:03;45650.59;;;-144.44;39.61
7836;BME280;3963;42.658;23.298;2023-08-06T10:34:54;45599.22;;;-144.44;40.46
7836;BME280;3963;42.658;23.298;2023-08-06T10:37:22;45636.75;;;-144.44;40.38
7836;BME280;3963;42.658;23.298;2023-08-06T10:39:49;45654.56;;;-144.44;39.37
7836;BME280;3963;42.658;23.298;2023-08-06T10:42:21;45603.16;;;-144.44;40.18
7836;BME280;3963;42.658;23.298;2023-08-06T10:45:18;45609.09;;;-144.44;41.58
7836;BME280;3963;42.658;23.298;2023-08-06T10:47:45;45611.06;;;-144.44;41.56
7836;BME280;3963;42.658;23.298;2023-08-06T10:50:15;45603.16;;;-144.44;41.37
7836;BME280;3963;42.658;23.298;2023-08-06T10:52:43;45563.63;;;-144.44;42.94
7836;BME280;3963;42.658;23.298;2023-08-06T10:55:10;45555.72;;;-144.44;42.75
7836;BME280;3963;42.658;23.298;2023-08-06T10:57:37;45557.72;;;-144.44;41.82
7836;BME280;3963;42.658;23.298;2023-08-06T11:00:05;45539.91;;;-144.44;42.19
7836;BME280;3963;42.658;23.298;2023-08-06T11:02:35;45532.00;;;-144.44;42.33
7836;BME280;3963;42.658;23.298;2023-08-06T11:05:06;45530.03;;;-144.44;43.31
7836;BME280;3963;42.658;23.298;2023-08-06T11:07:33;45508.28;;;-144.44;43.13
7836;BME280;3963;42.658;23.298;2023-08-06T11:10:04;45518.19;;;-144.44;43.05
7836;BME280;3963;42.658;23.298;2023-08-06T11:12:31;45508.28;;;-144.44;43.71
7836;BME280;3963;42.658;23.298;2023-08-06T11:14:58;45496.44;;;-144.44;44.62
7836;BME280;3963;42.658;23.298;2023-08-06T11:17:25;45512.25;;;-144.44;45.16
7836;BME280;3963;42.658;23.298;2023-08-06T11:19:54;45496.44;;;-144.44;47.64
7836;BME280;3963;42.658;23.298;2023-08-06T11:22:21;45454.94;;;-144.44;52.78
7836;BME280;3963;42.658;23.298;2023-08-06T11:24:48;45617.00;;;-144.44;64.25
7836;BME280;3963;42.658;23.298;2023-08-06T11:27:16;45844.31;;;-144.44;70.55
7836;BME280;3963;42.658;23.298;2023-08-06T11:29:43;45690.13;;;-144.44;75.90
7836;BME280;3963;42.658;23.298;2023-08-06T11:32:11;45512.25;;;-144.44;77.78
7836;BME280;3963;42.658;23.298;2023-08-06T11:34:39;45277.06;;;-144.44;76.93
7836;BME280;3963;42.658;23.298;2023-08-06T11:37:07;45263.22;;;-144.44;79.43
7836;BME280;3963;42.658;23.298;2023-08-06T11:39:36;45101.19;;;-144.44;78.73
7836;BME280;3963;42.658;23.298;2023-08-06T11:42:04;45085.38;;;-144.44;78.09
7836;BME280;3963;42.658;23.298;2023-08-06T11:44:32;45105.13;;;-144.44;80.59
7836;BME280;3963;42.658;23.298;2023-08-06T11:47:02;45018.19;;;-144.44;79.17
7836;BME280;3963;42.658;23.298;2023-08-06T11:49:40;45022.13;;;-144.44;80.24
7836;BME280;3963;42.658;23.298;2023-08-06T11:52:21;44968.78;;;-144.44;78.49
7836;BME280;3963;42.658;23.298;2023-08-06T11:55:00;44875.91;;;-144.44;74.36
7836;BME280;3963;42.658;23.298;2023-08-06T11:57:29;44947.03;;;-144.44;68.88
7836;BME280;3963;42.658;23.298;2023-08-06T12:00:00;44982.59;;;-144.44;69.42
7836;BME280;3963;42.658;23.298;2023-08-06T12:02:31;45020.16;;;-144.44;64.69
7836;BME280;3963;42.658;23.298;2023-08-06T12:05:00;45132.78;;;-144.44;61.58
7836;BME280;3963;42.658;23.298;2023-08-06T12:07:32;45140.69;;;-144.44;60.93
7836;BME280;3963;42.658;23.298;2023-08-06T12:10:01;45201.97;;;-144.44;59.16
7836;BME280;3963;42.658;23.298;2023-08-06T12:12:28;45211.84;;;-144.44;60.17
7836;BME280;3963;42.658;23.298;2023-08-06T12:14:55;45227.66;;;-144.44;57.42
7836;BME280;3963;42.658;23.298;2023-08-06T12:17:23;45241.50;;;-144.44;58.26
7836;BME280;3963;42.658;23.298;2023-08-06T12:19:50;45241.50;;;-144.44;58.48
7836;BME280;3963;42.658;23.298;2023-08-06T12:22:17;45259.28;;;-144.44;56.24
7836;BME280;3963;42.658;23.298;2023-08-06T12:24:46;45318.56;;;-144.44;54.75
7836;BME280;3963;42.658;23.298;2023-08-06T12:27:13;45296.81;;;-144.44;55.93
7836;BME280;3963;42.658;23.298;2023-08-06T12:29:43;45310.66;;;-144.44;54.30
7836;BME280;3963;42.658;23.298;2023-08-06T12:32:10;45308.69;;;-144.44;53.57
7836;BME280;3963;42.658;23.298;2023-08-06T12:34:38;45298.81;;;-144.44;53.04
7836;BME280;3963;42.658;23.298;2023-08-06T12:37:05;45340.31;;;-144.44;52.13
7836;BME280;3963;42.658;23.298;2023-08-06T12:39:32;45334.38;;;-144.44;52.09
7836;BME280;3963;42.658;23.298;2023-08-06T12:42:01;45330.44;;;-144.44;53.93
7836;BME280;3963;42.658;23.298;2023-08-06T12:44:28;45344.25;;;-144.44;53.68
7836;BME280;3963;42.658;23.298;2023-08-06T12:46:55;45364.03;;;-144.44;51.56